createdAt,value
2022-12-04T00:02:23.969Z,76.45
2022-12-04T00:04:51.157Z,78.15
2022-12-04T00:07:18.437Z,67.40
2022-12-04T00:09:45.694Z,66.30
2022-12-04T00:12:12.884Z,69.15
2022-12-04T00:15:00.878Z,68.88
2022-12-04T00:17:27.194Z,64.95
2022-12-04T00:19:54.620Z,68.93
2022-12-04T00:22:22.069Z,64.05
2022-12-04T00:24:49.276Z,65.95
2022-12-04T00:27:16.503Z,70.18
2022-12-04T00:29:43.779Z,73.35
2022-12-04T00:32:10.981Z,68.55
2022-12-04T00:34:38.256Z,66.60
2022-12-04T00:37:05.470Z,63.95
2022-12-04T00:39:32.606Z,71.22
2022-12-04T00:41:59.737Z,67.72
2022-12-04T00:44:27.361Z,66.20
2022-12-04T00:46:54.584Z,70.25
2022-12-04T00:49:21.816Z,65.85
2022-12-04T00:51:48.954Z,65.63
2022-12-04T00:54:16.111Z,63.78
2022-12-04T00:56:43.278Z,70.32
2022-12-04T00:59:11.287Z,67.25
2022-12-04T01:01:38.561Z,63.53
2022-12-04T01:04:05.803Z,71.03
2022-12-04T01:06:34.242Z,81.18
2022-12-04T01:09:02.159Z,73.20
2022-12-04T01:11:30.552Z,69.53
2022-12-04T01:13:58.080Z,74.78
2022-12-04T01:16:26.963Z,70.25
2022-12-04T01:18:54.253Z,70.78
2022-12-04T01:21:21.474Z,74.97
2022-12-04T01:23:48.793Z,72.50
2022-12-04T01:26:16.160Z,74.63
2022-12-04T01:28:43.373Z,67.40
2022-12-04T01:31:13.149Z,69.22
2022-12-04T01:33:40.950Z,66.03
2022-12-04T01:36:09.569Z,73.63
2022-12-04T01:38:37.273Z,67.97
2022-12-04T01:41:04.564Z,66.90
2022-12-04T01:43:32.892Z,66.47
2022-12-04T01:46:01.148Z,65.53
2022-12-04T01:48:32.745Z,68.15
2022-12-04T01:51:03.550Z,69.40
2022-12-04T01:53:31.602Z,70.47
2022-12-04T01:55:58.915Z,72.88
2022-12-04T01:58:29.481Z,69.47
2022-12-04T02:00:58.782Z,66.57
2022-12-04T02:03:26.829Z,74.05
2022-12-04T02:05:53.960Z,69.03
2022-12-04T02:08:21.196Z,68.47
2022-12-04T02:10:55.779Z,65.43
2022-12-04T02:13:34.722Z,75.35
2022-12-04T02:16:09.167Z,72.30
2022-12-04T02:18:44.532Z,65.68
2022-12-04T02:21:37.947Z,72.43
2022-12-04T02:24:08.190Z,73.40
2022-12-04T02:26:35.304Z,77.80
2022-12-04T02:29:16.078Z,73.07
2022-12-04T02:31:52.153Z,67.93
2022-12-04T02:34:24.327Z,69.63
2022-12-04T02:36:55.014Z,72.32
2022-12-04T02:39:33.785Z,68.65
2022-12-04T02:42:14.538Z,70.97
2022-12-04T02:44:48.311Z,72.55
2022-12-04T02:47:17.771Z,69.85
2022-12-04T02:49:50.427Z,69.65
2022-12-04T02:52:21.938Z,71.60
2022-12-04T02:54:52.165Z,66.63
2022-12-04T02:57:25.189Z,63.30
2022-12-04T02:59:53.851Z,71.07
2022-12-04T03:02:28.178Z,70.20
2022-12-04T03:04:56.012Z,71.28
2022-12-04T03:07:31.386Z,64.50
2022-12-04T03:10:00.855Z,67.93
2022-12-04T03:12:36.265Z,67.70
2022-12-04T03:15:06.464Z,73.72
2022-12-04T03:17:35.798Z,68.63
2022-12-04T03:20:06.409Z,63.90
2022-12-04T03:22:34.558Z,69.75
2022-12-04T03:25:03.527Z,67.25
2022-12-04T03:27:49.036Z,66.68
2022-12-04T03:30:21.880Z,72.68
2022-12-04T03:33:07.842Z,74.00
2022-12-04T03:35:41.991Z,63.40
2022-12-04T03:38:21.761Z,70.70
2022-12-04T03:40:57.092Z,67.50
2022-12-04T03:43:27.132Z,76.75
2022-12-04T03:46:00.161Z,72.47
2022-12-04T03:48:29.514Z,65.60
2022-12-04T03:51:04.652Z,67.78
2022-12-04T03:53:34.396Z,69.95
2022-12-04T03:56:01.516Z,70.40
2022-12-04T03:58:33.713Z,68.35
2022-12-04T04:01:03.975Z,66.18
2022-12-04T04:03:34.970Z,72.25
2022-12-04T04:06:05.198Z,74.65
2022-12-04T04:08:35.325Z,73.03
2022-12-04T04:11:14.580Z,73.22
2022-12-04T04:14:04.190Z,74.93
2022-12-04T04:16:52.844Z,70.43
2022-12-04T04:19:39.495Z,72.63
2022-12-04T04:22:28.757Z,68.05
2022-12-04T04:24:58.572Z,66.85
2022-12-04T04:27:25.791Z,72.32
2022-12-04T04:29:53.131Z,70.07
2022-12-04T04:32:23.410Z,61.60
2022-12-04T04:34:54.403Z,68.35
2022-12-04T04:37:27.776Z,66.78
2022-12-04T04:42:27.772Z,63.85
2022-12-04T04:45:03.854Z,68.27
2022-12-04T04:47:40.140Z,74.15
2022-12-04T04:50:11.328Z,80.40
2022-12-04T04:52:40.313Z,73.32
2022-12-04T04:55:08.157Z,70.70
2022-12-04T04:57:36.572Z,69.03
2022-12-04T05:00:11.949Z,75.15
2022-12-04T05:02:39.252Z,75.75
2022-12-04T05:05:07.090Z,74.55
2022-12-04T05:07:34.558Z,75.70
2022-12-04T05:10:01.823Z,84.45
2022-12-04T05:12:28.956Z,69.45
2022-12-04T05:14:56.139Z,70.25
2022-12-04T05:17:23.348Z,69.00
2022-12-04T05:19:53.965Z,70.93
2022-12-04T05:22:23.107Z,68.53
2022-12-04T05:24:50.322Z,74.47
2022-12-04T05:27:17.663Z,75.43
2022-12-04T05:29:44.983Z,74.28
2022-12-04T05:32:12.371Z,83.30
2022-12-04T05:34:39.974Z,71.47
2022-12-04T05:37:07.356Z,75.45
2022-12-04T05:39:35.579Z,74.20
2022-12-04T05:42:02.707Z,68.22
2022-12-04T05:44:30.026Z,74.85
2022-12-04T05:46:57.252Z,81.78
2022-12-04T05:49:24.495Z,84.18
2022-12-04T05:51:52.118Z,70.57
2022-12-04T05:54:19.924Z,82.88
2022-12-04T05:56:47.094Z,78.75
2022-12-04T05:59:14.564Z,79.10
2022-12-04T06:01:42.033Z,82.95
2022-12-04T06:04:09.614Z,88.07
2022-12-04T06:06:37.150Z,83.65
2022-12-04T06:09:06.444Z,81.43
2022-12-04T06:11:35.317Z,78.47
2022-12-04T06:14:03.460Z,78.43
2022-12-04T06:16:32.253Z,81.15
2022-12-04T06:19:00.900Z,86.00
2022-12-04T06:21:29.417Z,81.60
2022-12-04T06:23:57.022Z,87.20
2022-12-04T06:26:24.553Z,90.43
2022-12-04T06:28:54.071Z,77.32
2022-12-04T06:31:21.333Z,88.28
2022-12-04T06:33:48.674Z,97.13
2022-12-04T06:36:17.497Z,93.45
2022-12-04T06:38:44.703Z,98.88
2022-12-04T06:41:13.054Z,94.35
2022-12-04T06:43:40.693Z,99.88
2022-12-04T06:46:09.664Z,98.15
2022-12-04T06:48:37.114Z,98.30
2022-12-04T06:51:08.865Z,107.50
2022-12-04T06:53:36.231Z,100.03
2022-12-04T06:56:04.931Z,92.75
2022-12-04T06:58:32.191Z,114.63
2022-12-04T07:00:59.884Z,104.07
2022-12-04T07:03:27.253Z,128.77
2022-12-04T07:05:54.503Z,110.88
2022-12-04T07:08:21.640Z,94.00
2022-12-04T07:10:48.784Z,98.70
2022-12-04T07:13:15.939Z,99.88
2022-12-04T07:15:43.083Z,107.45
2022-12-04T07:18:10.309Z,87.78
2022-12-04T07:20:40.671Z,93.28
2022-12-04T07:23:07.916Z,102.43
2022-12-04T07:25:39.398Z,95.60
2022-12-04T07:28:06.700Z,100.78
2022-12-04T07:30:33.941Z,93.20
2022-12-04T07:33:01.070Z,93.32
2022-12-04T07:35:28.224Z,103.35
2022-12-04T07:37:55.347Z,99.18
2022-12-04T07:40:22.575Z,89.57
2022-12-04T07:42:49.746Z,100.68
2022-12-04T07:45:17.026Z,116.68
2022-12-04T07:47:44.158Z,93.57
2022-12-04T07:50:11.347Z,110.20
2022-12-04T07:52:41.192Z,104.45
2022-12-04T07:55:08.703Z,98.15
2022-12-04T07:57:35.913Z,109.68
2022-12-04T08:00:03.182Z,112.18
2022-12-04T08:02:30.497Z,111.88
2022-12-04T08:04:57.741Z,102.53
2022-12-04T08:07:24.920Z,100.03
2022-12-04T08:09:52.064Z,111.50
2022-12-04T08:12:19.237Z,105.45
2022-12-04T08:14:46.403Z,114.43
2022-12-04T08:17:13.707Z,106.07
2022-12-04T08:19:41.045Z,105.55
2022-12-04T08:22:11.047Z,98.95
2022-12-04T08:24:38.381Z,113.95
2022-12-04T08:29:49.010Z,107.70
2022-12-04T08:32:58.952Z,98.72
2022-12-04T08:38:59.976Z,119.40
2022-12-04T08:45:28.465Z,116.75
2022-12-04T08:47:55.626Z,124.07
2022-12-04T08:50:22.875Z,122.78
2022-12-04T08:52:50.039Z,131.68
2022-12-04T08:55:17.211Z,118.88
2022-12-04T08:57:44.430Z,117.22
2022-12-04T09:00:13.071Z,129.15
2022-12-04T09:02:40.187Z,125.70
2022-12-04T09:05:07.533Z,133.75
2022-12-04T09:07:34.834Z,108.55
2022-12-04T09:10:04.722Z,112.68
2022-12-04T09:12:31.894Z,127.35
2022-12-04T09:14:59.055Z,129.73
2022-12-04T09:17:26.288Z,128.05
2022-12-04T09:19:57.867Z,112.80
2022-12-04T09:22:40.353Z,91.97
2022-12-04T09:25:15.097Z,110.25
2022-12-04T09:27:42.753Z,108.57
2022-12-04T09:30:11.259Z,99.25
2022-12-04T09:32:38.524Z,106.32
2022-12-04T09:35:06.465Z,97.38
2022-12-04T09:37:34.029Z,121.45
2022-12-04T09:40:01.176Z,97.63
2022-12-04T09:42:40.601Z,101.47
2022-12-04T09:45:18.498Z,106.40
2022-12-04T09:47:47.200Z,123.53
2022-12-04T09:50:17.634Z,102.97
2022-12-04T09:52:44.774Z,122.95
2022-12-04T09:55:14.709Z,125.15
2022-12-04T09:57:46.243Z,106.13
2022-12-04T10:00:14.758Z,121.78
2022-12-04T10:02:43.704Z,104.03
2022-12-04T10:05:31.242Z,108.03
2022-12-04T10:08:05.789Z,101.35
2022-12-04T10:10:40.164Z,102.50
2022-12-04T10:13:07.373Z,139.93
2022-12-04T10:15:53.208Z,92.13
2022-12-04T10:18:37.428Z,111.88
2022-12-04T10:21:04.852Z,103.72
2022-12-04T10:23:50.823Z,88.55
2022-12-04T10:26:19.489Z,93.10
2022-12-04T10:28:55.497Z,114.00
2022-12-04T10:31:23.341Z,112.65
2022-12-04T10:33:59.489Z,111.03
2022-12-04T10:36:30.125Z,106.10
2022-12-04T10:38:59.094Z,105.18
2022-12-04T10:41:29.625Z,101.60
2022-12-04T10:43:56.967Z,104.55
2022-12-04T10:46:25.809Z,106.60
2022-12-04T10:48:58.758Z,114.25
2022-12-04T10:51:26.110Z,97.07
2022-12-04T10:53:53.372Z,92.15
2022-12-04T10:56:22.506Z,96.43
2022-12-04T10:58:57.387Z,97.15
2022-12-04T11:01:25.141Z,105.93
2022-12-04T11:04:01.193Z,98.57
2022-12-04T11:06:28.865Z,90.78
2022-12-04T11:08:56.538Z,84.25
2022-12-04T11:11:28.732Z,98.07
2022-12-04T11:14:28.613Z,101.93
2022-12-04T11:17:06.295Z,88.57
2022-12-04T11:19:34.864Z,109.20
2022-12-04T11:22:20.580Z,98.30
2022-12-04T11:24:53.692Z,96.88
2022-12-04T11:27:24.641Z,91.55
2022-12-04T11:29:55.376Z,149.00
2022-12-04T11:32:30.456Z,90.63
2022-12-04T11:35:00.321Z,92.47
2022-12-04T11:37:30.690Z,100.95
2022-12-04T11:39:58.510Z,96.60
2022-12-04T11:42:27.593Z,113.20
2022-12-04T11:45:14.796Z,115.63
2022-12-04T11:47:42.004Z,118.68
2022-12-04T11:50:15.121Z,116.57
2022-12-04T11:52:51.048Z,123.00
2022-12-04T11:55:34.794Z,111.80
2022-12-04T11:58:02.016Z,114.70
2022-12-04T12:00:29.638Z,108.05
2022-12-04T12:03:15.986Z,100.32
2022-12-04T12:06:04.479Z,101.65
2022-12-04T12:08:40.896Z,99.25
2022-12-04T12:11:14.123Z,118.32
2022-12-04T12:14:21.214Z,101.60
2022-12-04T12:17:06.716Z,118.32
2022-12-04T12:19:52.754Z,107.93
2022-12-04T12:22:21.730Z,122.43
2022-12-04T12:25:04.673Z,124.25
2022-12-04T12:27:38.072Z,107.22
2022-12-04T12:30:21.474Z,94.22
2022-12-04T12:32:48.869Z,112.13
2022-12-04T12:35:22.378Z,111.72
2022-12-04T12:37:51.977Z,110.35
2022-12-04T12:40:37.254Z,113.93
2022-12-04T12:43:14.694Z,126.32
2022-12-04T12:45:47.995Z,138.45
2022-12-04T12:51:28.965Z,119.47
2022-12-04T12:56:46.307Z,104.20
2022-12-04T12:59:19.661Z,131.02
2022-12-04T13:01:58.724Z,115.97
2022-12-04T13:04:44.139Z,151.43
2022-12-04T13:09:43.600Z,108.10
2022-12-04T13:12:13.738Z,106.80
2022-12-04T13:14:45.903Z,116.32
2022-12-04T13:17:19.877Z,111.00
2022-12-04T13:19:59.809Z,124.82
2022-12-04T13:22:27.049Z,106.70
2022-12-04T13:25:00.762Z,119.65
2022-12-04T13:37:01.352Z,103.70
2022-12-04T13:42:48.904Z,116.90
2022-12-04T13:45:26.619Z,117.30
2022-12-04T13:47:58.786Z,117.00
2022-12-04T13:50:28.297Z,116.13
2022-12-04T13:52:55.806Z,114.00
2022-12-04T13:55:39.789Z,110.55
2022-12-04T13:58:13.049Z,122.10
2022-12-04T14:00:43.818Z,111.30
2022-12-04T14:03:29.089Z,107.35
2022-12-04T14:05:56.902Z,114.60
2022-12-04T14:08:25.983Z,109.00
2022-12-04T14:11:01.526Z,104.55
2022-12-04T14:13:30.559Z,109.53
2022-12-04T14:16:05.685Z,122.15
2022-12-04T14:18:33.122Z,121.22
2022-12-04T14:21:05.375Z,124.35
2022-12-04T14:23:42.716Z,120.50
2022-12-04T14:26:22.159Z,131.70
2022-12-04T14:28:49.406Z,130.77
2022-12-04T14:31:26.678Z,139.13
2022-12-04T14:34:02.149Z,158.40
2022-12-04T14:36:31.856Z,135.38
2022-12-04T14:39:14.115Z,141.25
2022-12-04T14:41:41.789Z,143.00
2022-12-04T14:44:19.283Z,160.15
2022-12-04T14:46:50.262Z,131.48
2022-12-04T14:49:22.586Z,172.75
2022-12-04T14:51:49.746Z,145.52
2022-12-04T14:54:31.336Z,137.63
2022-12-04T14:57:01.596Z,166.43
2022-12-04T14:59:49.006Z,167.90
2022-12-04T15:02:22.397Z,164.60
2022-12-04T15:07:20.803Z,149.27
2022-12-04T15:10:10.899Z,132.90
2022-12-04T15:13:04.268Z,148.68
2022-12-04T15:15:31.526Z,139.63
2022-12-04T15:18:12.024Z,141.02
2022-12-04T15:20:44.764Z,176.32
2022-12-04T15:23:14.885Z,165.85
2022-12-04T15:25:45.551Z,218.35
2022-12-04T15:28:19.206Z,215.77
2022-12-04T15:30:48.323Z,229.40
2022-12-04T15:33:21.544Z,190.38
2022-12-04T15:35:52.011Z,186.63
2022-12-04T15:38:19.572Z,145.02
2022-12-04T15:40:51.142Z,253.75
2022-12-04T15:43:23.365Z,168.65
2022-12-04T15:45:50.540Z,184.50
2022-12-04T15:48:28.045Z,159.43
2022-12-04T15:50:59.765Z,175.40
2022-12-04T15:53:28.536Z,236.15
2022-12-04T15:56:02.253Z,201.63
2022-12-04T15:58:34.308Z,220.48
2022-12-04T16:01:06.262Z,204.27
2022-12-04T16:03:45.988Z,174.82
2022-12-04T16:06:19.690Z,147.07
2022-12-04T16:11:17.243Z,200.07
2022-12-04T16:13:44.444Z,180.20
2022-12-04T16:16:14.515Z,204.07
2022-12-04T16:18:43.201Z,205.07
2022-12-04T16:21:14.995Z,191.07
2022-12-04T16:23:42.192Z,229.52
2022-12-04T16:26:13.730Z,230.68
2022-12-04T16:28:40.986Z,208.18
2022-12-04T16:31:08.789Z,167.23
2022-12-04T16:33:35.987Z,203.65
2022-12-04T16:36:03.365Z,212.10
2022-12-04T16:38:30.527Z,233.35
2022-12-04T16:40:57.778Z,213.27
2022-12-04T16:43:24.937Z,221.18
2022-12-04T16:45:53.307Z,166.80
2022-12-04T16:48:20.667Z,236.77
2022-12-04T16:50:48.686Z,168.55
2022-12-04T16:53:17.181Z,232.38
2022-12-04T16:55:45.964Z,229.55
2022-12-04T16:58:13.373Z,221.68
2022-12-04T17:00:43.497Z,169.70
2022-12-04T17:03:16.962Z,165.30
2022-12-04T17:05:45.307Z,212.73
2022-12-04T17:08:12.761Z,212.10
2022-12-04T17:10:39.999Z,229.95
2022-12-04T17:13:07.143Z,221.20
2022-12-04T17:15:34.866Z,205.60
2022-12-04T17:18:05.988Z,191.35
2022-12-04T17:20:37.864Z,156.68
2022-12-04T17:23:05.101Z,145.43
2022-12-04T17:25:34.280Z,163.73
2022-12-04T17:28:01.620Z,206.50
2022-12-04T17:30:35.618Z,208.93
2022-12-04T17:33:03.093Z,186.35
2022-12-04T17:35:30.399Z,141.95
2022-12-04T17:38:02.253Z,161.68
2022-12-04T17:40:32.777Z,182.98
2022-12-04T17:42:59.976Z,189.98
2022-12-04T17:45:28.547Z,175.90
2022-12-04T17:47:55.809Z,172.60
2022-12-04T17:50:23.153Z,149.35
2022-12-04T17:52:50.475Z,141.93
2022-12-04T17:55:17.740Z,149.93
2022-12-04T17:57:44.972Z,163.73
2022-12-04T18:00:12.596Z,181.38
2022-12-04T18:02:41.737Z,190.82
2022-12-04T18:05:09.683Z,137.70
2022-12-04T18:07:37.139Z,177.75
2022-12-04T18:10:04.546Z,144.13
2022-12-04T18:12:31.946Z,175.63
2022-12-04T18:14:59.317Z,183.80
2022-12-04T18:17:26.667Z,177.82
2022-12-04T18:19:54.149Z,191.77
2022-12-04T18:22:21.565Z,177.80
2022-12-04T18:24:48.832Z,200.45
2022-12-04T18:27:16.102Z,195.07
2022-12-04T18:29:43.596Z,178.65
2022-12-04T18:32:10.966Z,179.35
2022-12-04T18:34:38.267Z,165.38
2022-12-04T18:37:05.637Z,195.05
2022-12-04T18:39:32.898Z,185.48
2022-12-04T18:42:00.125Z,165.15
2022-12-04T18:44:27.386Z,199.95
2022-12-04T18:46:54.778Z,137.30
2022-12-04T18:49:21.974Z,157.20
2022-12-04T18:51:50.397Z,135.02
2022-12-04T18:54:19.341Z,171.20
2022-12-04T18:56:46.729Z,159.77
2022-12-04T18:59:18.576Z,156.48
2022-12-04T19:01:45.930Z,180.90
2022-12-04T19:04:14.204Z,192.43
2022-12-04T19:06:42.814Z,199.80
2022-12-04T19:09:11.530Z,185.77
2022-12-04T19:11:39.289Z,132.18
2022-12-04T19:14:16.093Z,160.70
2022-12-04T19:16:48.603Z,136.85
2022-12-04T19:19:17.879Z,177.02
2022-12-04T19:21:45.179Z,192.68
2022-12-04T19:24:12.908Z,151.40
2022-12-04T19:26:40.108Z,191.57
2022-12-04T19:29:07.500Z,158.70
2022-12-04T19:31:36.175Z,163.15
2022-12-04T19:34:03.555Z,170.40
2022-12-04T19:36:32.013Z,186.88
2022-12-04T19:38:59.472Z,183.75
2022-12-04T19:41:27.813Z,195.50
2022-12-04T19:43:59.246Z,162.27
2022-12-04T19:46:27.793Z,149.85
2022-12-04T19:49:06.850Z,169.15
2022-12-04T19:51:37.461Z,195.23
2022-12-04T19:54:05.353Z,171.77
2022-12-04T19:56:33.696Z,169.73
2022-12-04T19:59:03.280Z,178.50
2022-12-04T20:01:32.410Z,176.68
2022-12-04T20:04:08.469Z,198.82
2022-12-04T20:06:37.074Z,220.80
2022-12-04T20:09:06.340Z,179.52
2022-12-04T20:11:33.766Z,167.80
2022-12-04T20:14:01.937Z,166.40
2022-12-04T20:16:29.864Z,204.85
2022-12-04T20:18:57.539Z,200.35
2022-12-04T20:21:28.665Z,175.77
2022-12-04T20:23:56.127Z,172.07
2022-12-04T20:26:31.256Z,154.93
2022-12-04T20:29:00.021Z,138.88
2022-12-04T20:31:28.667Z,184.38
2022-12-04T20:33:56.949Z,176.35
2022-12-04T20:36:25.035Z,185.32
2022-12-04T20:38:55.496Z,173.75
2022-12-04T20:41:23.021Z,171.60
2022-12-04T20:43:50.389Z,140.85
2022-12-04T20:46:22.269Z,176.00
2022-12-04T20:48:50.494Z,137.23
2022-12-04T20:51:18.935Z,132.48
2022-12-04T20:53:46.867Z,146.57
2022-12-04T20:56:18.531Z,132.88
2022-12-04T20:58:46.201Z,127.50
2022-12-04T21:01:15.456Z,155.07
2022-12-04T21:03:42.925Z,133.43
2022-12-04T21:06:13.588Z,121.28
2022-12-04T21:08:55.662Z,123.93
2022-12-04T21:11:27.161Z,132.80
2022-12-04T21:14:13.981Z,124.38
2022-12-04T21:16:42.992Z,172.18
2022-12-04T21:19:11.644Z,111.05
2022-12-04T21:21:39.511Z,151.40
2022-12-04T21:24:08.108Z,115.68
2022-12-04T21:26:35.503Z,109.43
2022-12-04T21:29:03.210Z,113.90
2022-12-04T21:31:32.729Z,143.52
2022-12-04T21:34:00.857Z,125.47
2022-12-04T21:36:28.763Z,124.90
2022-12-04T21:38:56.858Z,151.00
2022-12-04T21:41:42.888Z,119.25
2022-12-04T21:44:11.631Z,150.73
2022-12-04T21:46:39.371Z,118.25
2022-12-04T21:49:06.886Z,131.20
2022-12-04T21:51:59.563Z,142.88
2022-12-04T21:54:21.674Z,141.82
2022-12-04T21:56:50.270Z,123.95
2022-12-04T21:59:18.270Z,137.38
2022-12-04T22:01:45.656Z,156.30
2022-12-04T22:04:13.084Z,126.15
2022-12-04T22:06:40.440Z,136.13
2022-12-04T22:09:10.078Z,123.82
2022-12-04T22:11:38.015Z,137.77
2022-12-04T22:14:06.374Z,119.68
2022-12-04T22:16:38.326Z,98.85
2022-12-04T22:19:08.987Z,115.15
2022-12-04T22:21:36.413Z,105.60
2022-12-04T22:24:04.700Z,122.55
2022-12-04T22:26:32.752Z,128.80
2022-12-04T22:29:00.058Z,115.90
2022-12-04T22:31:29.563Z,100.78
2022-12-04T22:36:41.022Z,112.88
2022-12-04T22:39:10.240Z,119.45
2022-12-04T22:41:39.642Z,112.22
2022-12-04T22:44:07.493Z,89.18
2022-12-04T22:46:34.773Z,89.50
2022-12-04T22:49:02.234Z,95.13
2022-12-04T22:51:29.746Z,103.30
2022-12-04T22:53:58.300Z,90.20
2022-12-04T22:56:26.799Z,123.45
2022-12-04T22:58:54.691Z,104.57
2022-12-04T23:01:22.076Z,133.50
2022-12-04T23:03:50.670Z,91.90
2022-12-04T23:06:19.264Z,126.78
2022-12-04T23:08:46.903Z,130.15
2022-12-04T23:11:19.147Z,96.20
2022-12-04T23:13:51.196Z,97.32
2022-12-04T23:16:20.594Z,124.95
2022-12-04T23:18:48.338Z,106.85
2022-12-04T23:21:16.037Z,97.35
2022-12-04T23:23:44.325Z,137.02
2022-12-04T23:26:15.803Z,121.78
2022-12-04T23:31:26.385Z,100.40
2022-12-04T23:34:05.018Z,130.35
2022-12-04T23:53:13.535Z,96.35
2022-12-04T23:55:41.006Z,94.85
2022-12-04T23:58:08.447Z,87.40
